메인 페이지
METAR-TAF:

METAR-TAF

공항 :

Nawabshah, 파키스탄

위도: 26-15N, 경도: 068-22E, 고도: 37m

현재 날씨관측

예보는 48분 전, 01:00시(UTC)에 발표되었습니다.
무풍
온도 6°C
습도 93%
기압 1015 hPa
시정: 0800m
안개

METAR: OPNH 200100Z 00000KT 0800 FG NSC 06/05 Q1015 TEMPO 0800 FG

시각: 06:48 (01:48 UTC)

예보

예보는 4 시간 18분 전, 21:30시(UTC)에 발표되었습니다.
예보 대상 시간: 20일 00시부터 21일 06시까지 (UTC)
10kt
시정: 3000m
연무
일시적
20일 00시부터 20일 04시까지 (UTC)
kt
시정: 0800m
안개
전환 중
20일 18시부터 20일 20시까지 (UTC)
여러 방향의 바람 3kt
시정: 1200m
연기
일시적
21일 00시부터 21일 04시까지 (UTC)
kt
시정: 0800m
안개

TAF: OPNH 192130Z 2000/2106 36010KT 3000 HZ NSC TEMPO 2000/2004 00000KT 0800 FG VV/// BECMG 2018/2020 VRB03KT 1200 FU NSC TEMPO 2100/2104 00000KT 0800 FG VV///

4,000개 이상의 공항 관측 자료 및 예보 (METAR 및 TAF 보고).

지도상에서 검색 가능한 기상관측소가 노란 점과 빨간 점으로 표시되어 있습니다.

기상관측소 명을 보려면 표시 위로 마우스를 이동하세요.

날씨 관측과 예보를 보려면 클릭하세요.

지도 변경 : 확대하려면 엑스 표시가 있는 녹색 버튼, 축소하려면 빼기 표시가 있는 녹색 버튼, 다음 페이지의 지도를 보려면 녹색 화살표를 클릭하세요.


METAR-TAF: